createdAt,value
2023-11-23T00:00:15.398Z,102027.19
2023-11-23T00:03:19.215Z,102025.44
2023-11-23T00:06:22.956Z,102028.06
2023-11-23T00:09:26.664Z,102028.94
2023-11-23T00:12:31.364Z,102035.03
2023-11-23T00:15:36.368Z,102031.56
2023-11-23T00:18:40.123Z,102021.16
2023-11-23T00:21:43.759Z,102031.63
2023-11-23T00:24:47.530Z,102028.16
2023-11-23T00:27:51.161Z,102014.25
2023-11-23T00:30:56.210Z,102012.53
2023-11-23T00:34:00.069Z,102004.69
2023-11-23T00:37:03.841Z,102015.16
2023-11-23T00:40:08.961Z,102009.94
2023-11-23T00:43:13.014Z,102014.28
2023-11-23T00:46:18.155Z,102016.91
2023-11-23T00:49:21.830Z,102007.34
2023-11-23T00:52:25.408Z,102015.16
2023-11-23T00:55:29.725Z,102000.38
2023-11-23T00:58:33.300Z,101999.53
2023-11-23T01:01:38.594Z,102009.09
2023-11-23T01:04:44.109Z,102005.59
2023-11-23T01:07:47.746Z,102009.94
2023-11-23T01:10:51.513Z,102017.75
2023-11-23T01:13:55.241Z,102014.31
2023-11-23T01:17:00.292Z,102016.06
2023-11-23T01:20:06.713Z,102007.38
2023-11-23T01:23:10.318Z,102003.06
2023-11-23T01:26:14.341Z,102012.63
2023-11-23T01:29:19.220Z,102000.47
2023-11-23T01:32:24.913Z,102023.91
2023-11-23T01:35:28.468Z,102010.88
2023-11-23T01:38:32.232Z,102030.03
2023-11-23T01:41:36.046Z,102010.06
2023-11-23T01:44:39.698Z,102016.13
2023-11-23T01:47:48.432Z,102022.25
2023-11-23T01:50:54.971Z,102019.66
2023-11-23T01:54:00.260Z,102030.06
2023-11-23T01:57:05.957Z,102021.41
2023-11-23T02:00:11.959Z,102023.16
2023-11-23T02:03:17.509Z,102022.25
2023-11-23T02:06:21.381Z,102025.75
2023-11-23T02:09:25.268Z,102027.50
2023-11-23T02:12:30.265Z,102030.94
2023-11-23T02:15:34.060Z,102037.91
2023-11-23T02:18:40.124Z,102021.41
2023-11-23T02:21:44.844Z,102022.28
2023-11-23T02:24:49.965Z,102021.44
2023-11-23T02:27:53.912Z,102018.81
2023-11-23T02:30:57.592Z,102011.00
2023-11-23T02:34:02.374Z,102017.94
2023-11-23T02:37:07.238Z,101999.69
2023-11-23T02:40:13.760Z,101986.66
2023-11-23T02:43:17.880Z,101984.88
2023-11-23T02:46:21.566Z,101974.44
2023-11-23T02:49:25.410Z,101981.41
2023-11-23T02:52:29.219Z,101972.72
2023-11-23T02:55:34.529Z,101966.66
2023-11-23T02:58:38.142Z,101964.88
2023-11-23T03:01:43.075Z,101961.41
2023-11-23T03:04:46.863Z,101951.81
2023-11-23T03:07:50.565Z,101952.69
2023-11-23T03:10:55.641Z,101954.44
2023-11-23T03:13:59.922Z,101954.41
2023-11-23T03:17:04.870Z,101960.47
2023-11-23T03:20:10.288Z,101954.41
2023-11-23T03:23:13.956Z,101959.63
2023-11-23T03:26:19.248Z,101968.28
2023-11-23T03:29:23.695Z,101951.75
2023-11-23T03:32:31.091Z,101947.38
2023-11-23T03:35:34.766Z,101944.75
2023-11-23T03:38:39.617Z,101944.72
2023-11-23T03:41:44.809Z,101949.94
2023-11-23T03:44:48.556Z,101937.75
2023-11-23T03:47:53.742Z,101941.22
2023-11-23T03:50:57.461Z,101943.78
2023-11-23T03:54:03.496Z,101949.84
2023-11-23T03:57:08.594Z,101945.47
2023-11-23T04:00:14.455Z,101943.72
2023-11-23T04:03:19.467Z,101941.03
2023-11-23T04:06:23.336Z,101934.06
2023-11-23T04:09:27.124Z,101925.34
2023-11-23T04:12:32.233Z,101920.94
2023-11-23T04:15:36.144Z,101920.03
2023-11-23T04:18:43.188Z,101933.97
2023-11-23T04:21:47.709Z,101930.44
2023-11-23T04:24:51.564Z,101926.06
2023-11-23T04:27:58.499Z,101931.28
2023-11-23T04:31:02.251Z,101934.72
2023-11-23T04:34:06.077Z,101929.50
2023-11-23T04:37:09.812Z,101933.78
2023-11-23T04:40:13.949Z,101920.69
2023-11-23T04:43:19.196Z,101918.03
2023-11-23T04:46:23.183Z,101917.16
2023-11-23T04:49:26.832Z,101904.06
2023-11-23T04:52:30.424Z,101904.00
2023-11-23T04:55:34.217Z,101903.13
2023-11-23T04:58:39.179Z,101901.28
2023-11-23T05:01:42.943Z,101889.97
2023-11-23T05:04:47.297Z,101877.69
2023-11-23T05:07:51.337Z,101872.41
2023-11-23T05:10:55.011Z,101863.66
2023-11-23T05:14:08.580Z,101849.72
2023-11-23T05:17:12.584Z,101843.53
2023-11-23T05:20:16.380Z,101843.47
2023-11-23T05:23:20.101Z,101819.91
2023-11-23T05:26:27.338Z,101812.91
2023-11-23T05:29:32.461Z,101806.69
2023-11-23T05:32:36.243Z,101790.94
2023-11-23T05:35:39.953Z,101795.25
2023-11-23T05:38:43.713Z,101792.53
2023-11-23T05:41:47.478Z,101775.00
2023-11-23T05:44:52.672Z,101764.50
2023-11-23T05:47:56.970Z,101760.13
2023-11-23T05:51:00.855Z,101759.19
2023-11-23T05:54:04.674Z,101743.44
2023-11-23T05:57:08.991Z,101744.31
2023-11-23T06:00:16.352Z,101734.75
2023-11-23T06:03:24.556Z,101725.03
2023-11-23T06:06:30.713Z,101720.69
2023-11-23T06:09:34.854Z,101716.25
2023-11-23T06:12:38.689Z,101711.81
2023-11-23T06:15:44.308Z,101715.28
2023-11-23T06:18:48.200Z,101706.56
2023-11-23T06:21:52.336Z,101709.16
2023-11-23T06:24:56.191Z,101704.81
2023-11-23T06:28:12.223Z,101704.81
2023-11-23T06:31:20.677Z,101710.91
2023-11-23T06:34:27.439Z,101707.41
2023-11-23T06:37:31.023Z,101709.97
2023-11-23T06:40:35.537Z,101708.31
2023-11-23T06:43:39.776Z,101713.53
2023-11-23T06:46:44.881Z,101698.63
2023-11-23T06:49:48.926Z,101695.91
2023-11-23T06:52:52.551Z,101697.66
2023-11-23T06:55:58.449Z,101696.78
2023-11-23T06:59:02.821Z,101680.13
2023-11-23T07:02:08.475Z,101683.59
2023-11-23T07:05:13.307Z,101666.06
2023-11-23T07:08:16.891Z,101676.56
2023-11-23T07:11:20.728Z,101663.38
2023-11-23T07:14:24.394Z,101659.81
2023-11-23T07:17:29.508Z,101650.13
2023-11-23T07:20:33.140Z,101638.84
2023-11-23T07:23:38.040Z,101629.25
2023-11-23T07:26:41.673Z,101629.22
2023-11-23T07:29:45.392Z,101624.91
2023-11-23T07:32:50.435Z,101621.38
2023-11-23T07:35:54.260Z,101615.19
2023-11-23T07:38:57.952Z,101607.97
2023-11-23T07:42:01.936Z,101599.19
2023-11-23T07:45:06.506Z,101600.09
2023-11-23T07:48:15.125Z,101589.47
2023-11-23T07:51:19.926Z,101584.22
2023-11-23T07:54:24.393Z,101584.16
2023-11-23T07:57:28.541Z,101564.91
2023-11-23T08:00:32.438Z,101563.19
2023-11-23T08:03:37.666Z,101556.09
2023-11-23T08:06:41.363Z,101539.47
2023-11-23T08:09:45.237Z,101533.28
2023-11-23T08:12:48.924Z,101530.34
2023-11-23T08:15:52.594Z,101511.06
2023-11-23T08:18:57.705Z,101495.38
2023-11-23T08:22:01.423Z,101484.66
2023-11-23T08:25:05.855Z,101487.16
2023-11-23T08:28:09.475Z,101453.94
2023-11-23T08:31:13.211Z,101452.09
2023-11-23T08:34:18.192Z,101460.75
2023-11-23T08:37:21.821Z,101471.13
2023-11-23T08:40:25.644Z,101475.28
2023-11-23T08:43:29.547Z,101456.03
2023-11-23T08:46:34.754Z,101456.78
2023-11-23T08:49:39.812Z,101453.44
2023-11-23T08:52:43.566Z,101441.97
2023-11-23T08:55:49.600Z,101427.88
2023-11-23T08:58:53.295Z,101419.94
2023-11-23T09:02:01.941Z,101415.59
2023-11-23T09:05:11.201Z,101418.09
2023-11-23T09:08:15.021Z,101394.56
2023-11-23T09:11:18.950Z,101393.38
2023-11-23T09:14:23.596Z,101363.59
2023-11-23T09:17:27.358Z,101363.44
2023-11-23T09:20:32.643Z,101352.84
2023-11-23T09:23:36.240Z,101346.66
2023-11-23T09:26:41.388Z,101356.34
2023-11-23T09:29:45.015Z,101360.63
2023-11-23T09:32:48.646Z,101356.25
2023-11-23T09:35:53.615Z,101359.69
2023-11-23T09:38:57.460Z,101359.72
2023-11-23T09:42:05.441Z,101352.84
2023-11-23T09:45:23.138Z,101350.91
2023-11-23T09:48:35.153Z,101359.72
2023-11-23T09:51:42.779Z,101349.69
2023-11-23T09:54:47.885Z,101340.16
2023-11-23T09:57:51.670Z,101326.94
2023-11-23T10:00:55.529Z,101328.81
2023-11-23T10:04:01.325Z,101321.78
2023-11-23T10:07:08.700Z,101321.63
2023-11-23T10:10:13.049Z,101318.91
2023-11-23T10:13:17.498Z,101286.47
2023-11-23T10:16:21.874Z,101288.25
2023-11-23T10:19:26.389Z,101278.72
2023-11-23T10:22:32.839Z,101268.13
2023-11-23T10:25:37.179Z,101254.16
2023-11-23T10:28:42.349Z,101254.88
2023-11-23T10:31:47.059Z,101255.56
2023-11-23T10:34:50.686Z,101248.47
2023-11-23T10:37:57.255Z,101252.16
2023-11-23T10:41:01.543Z,101240.53
2023-11-23T10:44:06.499Z,101216.91
2023-11-23T10:47:13.629Z,101223.66
2023-11-23T10:50:17.965Z,101199.88
2023-11-23T10:53:28.431Z,101214.56
2023-11-23T10:56:34.209Z,101212.78
2023-11-23T10:59:40.175Z,101203.00
2023-11-23T11:02:45.300Z,101198.72
2023-11-23T11:05:52.044Z,101194.31
2023-11-23T11:08:57.060Z,101189.91
2023-11-23T11:12:05.163Z,101192.47
2023-11-23T11:15:10.848Z,101194.28
2023-11-23T11:18:14.617Z,101197.81
2023-11-23T11:21:21.900Z,101180.97
2023-11-23T11:24:27.091Z,101172.03
2023-11-23T11:27:31.889Z,101158.19
2023-11-23T11:30:36.125Z,101155.50
2023-11-23T11:33:40.032Z,101149.31
2023-11-23T11:36:44.877Z,101129.97
2023-11-23T11:39:53.428Z,101124.81
2023-11-23T11:43:00.359Z,101098.53
2023-11-23T11:46:06.326Z,101110.56
2023-11-23T11:49:13.378Z,101109.75
2023-11-23T11:52:18.397Z,101075.47
2023-11-23T11:55:23.534Z,101066.69
2023-11-23T11:58:29.330Z,101073.69
2023-11-23T12:01:33.075Z,101073.56
2023-11-23T12:04:38.124Z,101074.28
2023-11-23T12:07:42.096Z,101082.09
2023-11-23T12:10:47.060Z,101078.69
2023-11-23T12:13:54.358Z,101068.94
2023-11-23T12:16:59.685Z,101061.91
2023-11-23T12:20:04.661Z,101066.94
2023-11-23T12:23:10.000Z,101064.28
2023-11-23T12:26:16.198Z,101067.75
2023-11-23T12:29:23.977Z,101047.78
2023-11-23T12:32:28.640Z,101060.88
2023-11-23T12:35:32.238Z,101059.16
2023-11-23T12:38:35.859Z,101059.16
2023-11-23T12:41:46.657Z,101060.06
2023-11-23T12:44:57.511Z,101051.63
2023-11-23T12:48:02.270Z,101056.06
2023-11-23T12:51:05.969Z,101054.03
2023-11-23T12:54:09.709Z,101057.44
2023-11-23T12:57:15.129Z,101050.81
2023-11-23T13:00:23.001Z,101048.38
2023-11-23T13:03:26.896Z,101061.97
2023-11-23T13:06:30.878Z,101067.03
2023-11-23T13:09:35.146Z,101069.22
2023-11-23T13:12:41.159Z,101067.81
2023-11-23T13:15:45.611Z,101078.41
2023-11-23T13:19:05.472Z,101075.75
2023-11-23T13:22:13.499Z,101081.03
2023-11-23T13:25:20.145Z,101067.94
2023-11-23T13:28:27.680Z,101081.06
2023-11-23T13:31:31.343Z,101082.00
2023-11-23T13:34:37.576Z,101083.59
2023-11-23T13:37:41.832Z,101079.25
2023-11-23T13:40:50.068Z,101068.69
2023-11-23T13:43:56.030Z,101068.59
2023-11-23T13:47:00.300Z,101067.91
2023-11-23T13:50:09.407Z,101071.44
2023-11-23T13:53:13.503Z,101082.94
2023-11-23T13:56:18.119Z,101085.69
2023-11-23T13:59:23.513Z,101089.25
2023-11-23T14:02:27.699Z,101097.22
2023-11-23T14:05:31.796Z,101114.53
2023-11-23T14:08:36.978Z,101106.75
2023-11-23T14:11:40.710Z,101104.16
2023-11-23T14:14:45.739Z,101112.13
2023-11-23T14:17:49.701Z,101119.22
2023-11-23T14:20:53.366Z,101122.84
2023-11-23T14:23:57.018Z,101121.09
2023-11-23T14:27:01.902Z,101120.31
2023-11-23T14:30:08.949Z,101123.78
2023-11-23T14:33:14.310Z,101125.56
2023-11-23T14:36:19.509Z,101128.09
2023-11-23T14:39:25.280Z,101140.41
2023-11-23T14:42:38.857Z,101136.06
2023-11-23T14:45:47.480Z,101129.03
2023-11-23T14:48:52.648Z,101145.63
2023-11-23T14:51:57.199Z,101133.50
2023-11-23T14:55:01.665Z,101140.47
2023-11-23T14:58:05.540Z,101134.41
2023-11-23T15:01:11.117Z,101120.41
2023-11-23T15:04:15.067Z,101124.81
2023-11-23T15:07:18.747Z,101112.69
2023-11-23T15:10:22.352Z,101114.44
2023-11-23T15:13:32.662Z,101109.25
2023-11-23T15:16:43.204Z,101103.94
2023-11-23T15:19:46.873Z,101103.94
2023-11-23T15:22:51.679Z,101092.66
2023-11-23T15:25:55.523Z,101099.63
2023-11-23T15:29:00.964Z,101100.47
2023-11-23T15:32:07.758Z,101084.75
2023-11-23T15:35:12.413Z,101097.91
2023-11-23T15:38:16.348Z,101096.97
2023-11-23T15:41:20.849Z,101095.25
2023-11-23T15:44:24.886Z,101105.72
2023-11-23T15:47:29.912Z,101103.94
2023-11-23T15:50:34.125Z,101078.50
2023-11-23T15:53:37.712Z,101073.09
2023-11-23T15:56:41.862Z,101061.75
2023-11-23T15:59:45.483Z,101053.09
2023-11-23T16:02:50.541Z,101040.78
2023-11-23T16:05:54.719Z,101043.34
2023-11-23T16:08:58.713Z,101034.63
2023-11-23T16:12:02.465Z,101029.38
2023-11-23T16:15:11.716Z,101021.56
2023-11-23T16:18:17.015Z,101015.38
2023-11-23T16:21:20.845Z,101021.41
2023-11-23T16:24:24.846Z,100999.47
2023-11-23T16:27:28.761Z,100986.34
2023-11-23T16:30:32.614Z,100977.59
2023-11-23T16:33:37.720Z,100945.03
2023-11-23T16:36:43.190Z,100919.47
2023-11-23T16:39:47.086Z,100895.66
2023-11-23T16:42:50.906Z,100878.00
2023-11-23T16:45:54.661Z,100862.50
2023-11-23T16:48:59.757Z,100860.56
2023-11-23T16:52:03.873Z,100856.59
2023-11-23T16:55:09.581Z,100877.03
2023-11-23T16:58:13.382Z,100860.00
2023-11-23T17:01:18.117Z,100848.00
2023-11-23T17:04:24.363Z,100864.97
2023-11-23T17:07:28.017Z,100872.41
2023-11-23T17:10:31.643Z,100864.72
2023-11-23T17:13:35.241Z,100879.50
2023-11-23T17:16:38.965Z,100893.53
2023-11-23T17:19:43.999Z,100908.06
2023-11-23T17:22:49.032Z,100916.25
2023-11-23T17:25:53.091Z,100922.72
2023-11-23T17:28:57.704Z,100916.38
2023-11-23T17:32:04.537Z,100919.81
2023-11-23T17:35:11.052Z,100900.44
2023-11-23T17:38:17.431Z,100906.53
2023-11-23T17:41:21.701Z,100918.06
2023-11-23T17:44:27.646Z,100925.91
2023-11-23T17:47:31.372Z,100927.22
2023-11-23T17:50:38.269Z,100922.00
2023-11-23T17:53:43.905Z,100931.06
2023-11-23T17:56:47.525Z,100941.66
2023-11-23T17:59:55.988Z,100946.09
2023-11-23T18:03:00.432Z,100942.72
2023-11-23T18:06:06.690Z,100930.63
2023-11-23T18:09:10.708Z,100930.69
2023-11-23T18:12:14.927Z,100925.72
2023-11-23T18:15:32.973Z,100931.88
2023-11-23T18:18:36.989Z,100930.38
2023-11-23T18:21:42.170Z,100902.75
2023-11-23T18:24:45.868Z,100894.56
2023-11-23T18:27:49.891Z,100903.56
2023-11-23T18:30:54.745Z,100902.97
2023-11-23T18:33:58.885Z,100910.06
2023-11-23T18:37:04.011Z,100914.53
2023-11-23T18:40:14.477Z,100925.94
2023-11-23T18:43:18.395Z,100952.06
2023-11-23T18:46:23.268Z,100943.38
2023-11-23T18:49:29.279Z,100947.75
2023-11-23T18:52:34.562Z,100936.56
2023-11-23T18:55:38.201Z,100930.53
2023-11-23T18:58:42.380Z,100927.84
2023-11-23T19:01:46.079Z,100933.03
2023-11-23T19:04:50.571Z,100909.66
2023-11-23T19:07:55.667Z,100910.47
2023-11-23T19:10:59.434Z,100876.59
2023-11-23T19:14:04.701Z,100875.84
2023-11-23T19:17:08.396Z,100857.63
2023-11-23T19:20:14.331Z,100852.34
2023-11-23T19:23:20.507Z,100837.63
2023-11-23T19:26:25.327Z,100826.28
2023-11-23T19:29:38.776Z,100824.41
2023-11-23T19:32:52.584Z,100821.06
2023-11-23T19:35:58.014Z,100827.13
2023-11-23T19:39:04.374Z,100818.25
2023-11-23T19:42:09.630Z,100843.38
2023-11-23T19:45:17.812Z,100845.88
2023-11-23T19:48:24.053Z,100879.00
2023-11-23T19:51:30.459Z,100872.06
2023-11-23T19:54:35.925Z,100844.06
2023-11-23T19:57:39.759Z,100826.81
2023-11-23T20:00:43.543Z,100810.38
2023-11-23T20:03:47.320Z,100797.28
2023-11-23T20:06:51.382Z,100795.56
2023-11-23T20:09:56.621Z,100786.13
2023-11-23T20:13:00.349Z,100782.44
2023-11-23T20:16:04.749Z,100786.94
2023-11-23T20:19:09.733Z,100777.22
2023-11-23T20:22:13.521Z,100776.41
2023-11-23T20:25:19.178Z,100779.81
2023-11-23T20:28:23.688Z,100778.09
2023-11-23T20:31:27.643Z,100806.00
2023-11-23T20:34:31.408Z,100796.44
2023-11-23T20:37:36.037Z,100794.69
2023-11-23T20:40:41.158Z,100774.88
2023-11-23T20:43:44.790Z,100764.69
2023-11-23T20:46:49.158Z,100761.19
2023-11-23T20:49:52.929Z,100749.00
2023-11-23T20:52:56.660Z,100739.72
2023-11-23T20:56:03.411Z,100737.19
2023-11-23T20:59:09.429Z,100739.28
2023-11-23T21:02:13.995Z,100748.22
2023-11-23T21:05:19.195Z,100753.59
2023-11-23T21:08:23.989Z,100772.94
2023-11-23T21:11:29.147Z,100760.94
2023-11-23T21:14:34.180Z,100757.75
2023-11-23T21:17:38.040Z,100763.81
2023-11-23T21:20:43.049Z,100762.09
2023-11-23T21:23:47.038Z,100737.69
2023-11-23T21:26:53.075Z,100705.63
2023-11-23T21:29:56.756Z,100705.50
2023-11-23T21:33:00.563Z,100705.75
2023-11-23T21:36:09.731Z,100725.88
2023-11-23T21:39:15.142Z,100717.19
2023-11-23T21:42:21.270Z,100719.63
2023-11-23T21:45:25.078Z,100703.16
2023-11-23T21:48:28.842Z,100714.41
2023-11-23T21:51:34.002Z,100706.59
2023-11-23T21:54:44.032Z,100698.63
2023-11-23T21:57:52.365Z,100688.22
2023-11-23T22:00:56.248Z,100684.72
2023-11-23T22:04:00.147Z,100668.25
2023-11-23T22:07:04.698Z,100682.84
2023-11-23T22:10:09.718Z,100682.97
2023-11-23T22:13:14.890Z,100688.22
2023-11-23T22:16:18.721Z,100684.88
2023-11-23T22:19:24.049Z,100702.28
2023-11-23T22:22:28.718Z,100697.06
2023-11-23T22:25:34.197Z,100724.78
2023-11-23T22:28:40.307Z,100725.38
2023-11-23T22:31:45.414Z,100723.69
2023-11-23T22:34:49.949Z,100732.41
2023-11-23T22:37:54.867Z,100737.91
2023-11-23T22:40:59.600Z,100731.91
2023-11-23T22:44:08.477Z,100721.69
2023-11-23T22:47:13.542Z,100707.06
2023-11-23T22:50:17.397Z,100709.72
2023-11-23T22:53:21.201Z,100689.69
2023-11-23T22:56:24.891Z,100686.38
2023-11-23T22:59:29.915Z,100678.50
2023-11-23T23:02:34.326Z,100690.72
2023-11-23T23:05:38.023Z,100686.47
2023-11-23T23:08:41.729Z,100683.78
2023-11-23T23:11:45.331Z,100701.28
2023-11-23T23:14:50.409Z,100702.16
2023-11-23T23:17:55.738Z,100696.81
2023-11-23T23:20:59.616Z,100689.84
2023-11-23T23:24:03.275Z,100675.13
2023-11-23T23:27:07.623Z,100703.78
2023-11-23T23:30:14.151Z,100680.41
2023-11-23T23:33:17.902Z,100690.06
2023-11-23T23:36:21.628Z,100698.03
2023-11-23T23:39:26.642Z,100686.84
2023-11-23T23:42:30.373Z,100686.81
2023-11-23T23:45:35.434Z,100691.22
2023-11-23T23:48:39.344Z,100695.03
2023-11-23T23:51:43.138Z,100700.38
2023-11-23T23:54:50.212Z,100704.72
2023-11-23T23:57:54.122Z,100707.47
